Time;durP1;ratioP1;P1;durP2;ratioP2;P2;SDS_P1;SDS_P2;PMS_P1;PMS_P2;Temp;Humidity;BMP_temperature;BMP_pressure;BME280_temperature;BME280_humidity;BME280_pressure;Samples;Min_cycle;Max_cycle;Signal;HPM_P1;HPM_P2
2022/01/04 00:01:20;;;;;;;6.15;1.63;;;20.60;50.90;;;;;;5074474;28;20464;-56
2022/01/04 00:03:46;;;;;;;6.35;2.17;;;20.60;50.90;;;;;;5075027;28;20033;-57
2022/01/04 00:06:11;;;;;;;6.35;1.95;;;20.60;50.90;;;;;;5074548;28;20105;-56
2022/01/04 00:08:37;;;;;;;7.43;2.05;;;20.60;50.90;;;;;;5074419;28;20051;-56
2022/01/04 00:11:18;;;;;;;4.57;1.80;;;20.60;50.90;;;;;;5074373;28;20112;-57
2022/01/04 00:13:44;;;;;;;;;;;20.60;50.90;;;;;;5075264;28;20044;-57
2022/01/04 00:16:11;;;;;;;4.97;1.98;;;20.60;50.80;;;;;;5074323;28;19923;-57
2022/01/04 00:18:37;;;;;;;5.57;1.90;;;20.60;51.00;;;;;;5074210;28;20040;-56
2022/01/04 00:21:04;;;;;;;6.40;1.98;;;20.60;50.90;;;;;;5073807;28;20040;-56
2022/01/04 00:23:30;;;;;;;5.78;1.67;;;20.60;50.80;;;;;;5074135;28;20049;-56
2022/01/04 00:25:56;;;;;;;5.53;1.95;;;20.60;50.80;;;;;;5074574;28;20040;-56
2022/01/04 00:28:21;;;;;;;6.30;2.05;;;20.60;50.70;;;;;;5074528;28;20474;-56
2022/01/04 00:30:47;;;;;;;4.35;1.90;;;20.60;50.70;;;;;;5074512;28;20121;-56
2022/01/04 00:33:14;;;;;;;4.75;1.73;;;20.60;50.60;;;;;;5073885;28;20447;-56
2022/01/04 00:35:40;;;;;;;6.85;1.88;;;20.60;50.70;;;;;;5073888;28;20463;-56
2022/01/04 00:38:06;;;;;;;5.13;1.83;;;20.60;50.70;;;;;;5073853;28;20044;-56
2022/01/04 00:40:32;;;;;;;5.22;1.88;;;20.60;50.60;;;;;;5073694;28;20032;-56
2022/01/04 00:42:58;;;;;;;5.72;1.67;;;20.60;50.60;;;;;;5073790;28;20036;-56
2022/01/04 00:45:25;;;;;;;5.43;1.80;;;20.60;50.60;;;;;;5073761;28;20429;-56
2022/01/04 00:50:22;;;;;;;5.82;1.65;;;20.50;50.50;;;;;;5073436;28;20372;-56
2022/01/04 00:52:47;;;;;;;7.65;2.15;;;20.50;50.40;;;;;;5073352;28;20040;-56
2022/01/04 00:55:13;;;;;;;5.20;1.65;;;20.50;50.40;;;;;;5073557;28;20040;-57
2022/01/04 00:57:39;;;;;;;6.18;1.73;;;20.50;50.50;;;;;;5072419;28;20045;-56
2022/01/04 01:00:07;;;;;;;3.53;1.85;;;20.50;50.50;;;;;;5073559;28;20383;-56
2022/01/04 01:02:32;;;;;;;7.88;2.30;;;20.50;50.70;;;;;;5073857;28;20040;-56
2022/01/04 01:04:58;;;;;;;4.28;1.88;;;20.50;50.80;;;;;;5073940;28;20406;-56
2022/01/04 01:07:23;;;;;;;6.57;2.00;;;20.50;50.90;;;;;;5072994;28;20053;-56
2022/01/04 01:12:21;;;;;;;5.57;2.00;;;20.50;51.00;;;;;;5074183;28;20405;-56
2022/01/04 01:14:46;;;;;;;6.03;1.77;;;20.50;51.00;;;;;;5073567;28;20044;-56
2022/01/04 01:17:12;;;;;;;4.13;1.75;;;20.50;51.10;;;;;;5073344;28;20043;-56
2022/01/04 01:19:37;;;;;;;6.68;2.00;;;20.50;51.10;;;;;;5073007;28;20044;-56
2022/01/04 01:22:04;;;;;;;5.43;1.83;;;20.50;51.10;;;;;;5073661;28;20041;-56
2022/01/04 01:24:29;;;;;;;4.15;1.88;;;20.50;51.90;;;;;;5073956;28;20041;-56
2022/01/04 01:26:55;;;;;;;5.15;1.60;;;20.50;51.10;;;;;;5073213;28;20486;-56
2022/01/04 01:29:20;;;;;;;6.75;2.25;;;20.50;51.10;;;;;;5073183;28;20440;-56
2022/01/04 01:31:46;;;;;;;4.32;1.65;;;20.50;51.10;;;;;;5073154;28;20036;-56
2022/01/04 01:34:11;;;;;;;5.18;2.03;;;20.50;51.10;;;;;;5073385;28;20044;-56
2022/01/04 01:36:37;;;;;;;5.38;1.80;;;20.50;51.20;;;;;;5072892;28;20582;-56
2022/01/04 01:39:03;;;;;;;3.42;1.70;;;20.40;51.10;;;;;;5073483;28;20127;-56
2022/01/04 01:41:29;;;;;;;3.97;1.83;;;20.40;51.20;;;;;;5073073;28;20130;-56
2022/01/04 01:43:55;;;;;;;7.57;2.50;;;20.40;51.10;;;;;;5073061;28;20124;-56
2022/01/04 01:46:21;;;;;;;6.10;2.10;;;20.40;51.10;;;;;;5073100;28;20543;-56
2022/01/04 01:48:46;;;;;;;4.60;1.95;;;20.40;51.10;;;;;;5073046;28;20041;-56
2022/01/04 01:51:16;;;;;;;4.40;1.85;;;20.40;51.10;;;;;;5072789;28;20047;-56
2022/01/04 01:53:42;;;;;;;3.97;1.90;;;20.40;51.10;;;;;;5073447;28;20123;-56
2022/01/04 01:56:07;;;;;;;4.70;1.70;;;20.40;51.10;;;;;;5072649;28;20360;-56
2022/01/04 01:58:33;;;;;;;5.63;1.88;;;20.40;51.00;;;;;;5073398;28;20033;-56
2022/01/04 02:00:58;;;;;;;3.97;1.88;;;20.40;51.00;;;;;;5071553;28;20427;-57
2022/01/04 02:03:24;;;;;;;6.28;1.95;;;20.40;51.00;;;;;;5072876;28;20072;-56
2022/01/04 02:05:51;;;;;;;6.15;1.95;;;20.40;51.00;;;;;;5073334;28;20379;-60
2022/01/04 02:08:18;;;;;;;3.60;1.80;;;20.40;50.90;;;;;;5072867;28;20115;-57
2022/01/04 02:10:44;;;;;;;4.00;1.90;;;20.40;51.00;;;;;;5072500;28;20387;-56
2022/01/04 02:13:10;;;;;;;5.68;2.42;;;20.40;50.90;;;;;;5072417;28;20375;-56
2022/01/04 02:15:36;;;;;;;4.20;1.70;;;20.40;50.90;;;;;;5072704;28;20041;-56
2022/01/04 02:18:02;;;;;;;5.72;2.00;;;20.40;50.90;;;;;;5072751;28;20087;-56
2022/01/04 02:20:28;;;;;;;3.92;1.52;;;20.40;50.90;;;;;;5074911;28;20049;-56
2022/01/04 02:22:55;;;;;;;4.35;1.95;;;20.40;50.90;;;;;;5077188;28;20456;-56
2022/01/04 02:25:21;;;;;;;5.00;1.70;;;20.40;50.80;;;;;;5076448;28;20514;-56
2022/01/04 02:27:46;;;;;;;4.05;2.00;;;20.40;50.90;;;;;;5076387;28;20040;-56
2022/01/04 02:30:15;;;;;;;4.25;1.80;;;20.40;50.80;;;;;;5076838;28;20041;-56
2022/01/04 02:32:42;;;;;;;4.63;1.92;;;20.40;50.80;;;;;;5076235;28;20040;-56
2022/01/04 02:35:08;;;;;;;4.47;1.88;;;20.40;50.80;;;;;;5076706;28;20090;-56
2022/01/04 02:37:33;;;;;;;4.88;1.92;;;20.40;50.80;;;;;;5075855;28;20041;-56
2022/01/04 02:39:59;;;;;;;6.40;2.22;;;20.40;50.80;;;;;;5076171;28;20040;-56
2022/01/04 02:42:25;;;;;;;4.32;1.90;;;20.30;50.80;;;;;;5076047;28;20123;-56
2022/01/04 02:44:50;;;;;;;5.03;1.85;;;20.30;50.70;;;;;;5076106;28;20140;-56
2022/01/04 02:47:17;;;;;;;4.00;1.73;;;20.30;50.70;;;;;;5075975;28;20094;-57
2022/01/04 02:49:43;;;;;;;3.97;1.80;;;20.30;50.70;;;;;;5075993;28;20037;-56
2022/01/04 02:52:09;;;;;;;5.13;1.90;;;20.30;50.70;;;;;;5075901;28;20052;-56
2022/01/04 02:54:35;;;;;;;6.05;2.10;;;20.30;50.70;;;;;;5075932;28;20044;-56
2022/01/04 02:57:01;;;;;;;7.60;1.75;;;20.30;50.70;;;;;;5076609;28;20143;-56
2022/01/04 02:59:26;;;;;;;4.25;1.90;;;20.30;50.60;;;;;;5075822;28;20093;-56
2022/01/04 03:01:52;;;;;;;3.00;1.63;;;20.30;50.70;;;;;;5075204;28;20387;-57
2022/01/04 03:04:20;;;;;;;3.97;1.88;;;20.30;50.60;;;;;;5075790;28;20040;-56
2022/01/04 03:06:45;;;;;;;3.72;1.75;;;20.30;50.70;;;;;;5075886;28;20033;-56
2022/01/04 03:09:11;;;;;;;4.38;1.67;;;20.30;50.60;;;;;;5076106;28;20070;-56
2022/01/04 03:11:37;;;;;;;4.70;2.08;;;20.30;50.60;;;;;;5075197;28;20540;-56
2022/01/04 03:14:03;;;;;;;6.63;2.38;;;20.30;50.60;;;;;;5074179;28;20076;-56
2022/01/04 03:16:29;;;;;;;4.22;1.92;;;20.30;50.60;;;;;;5075446;28;20048;-56
2022/01/04 03:19:03;;;;;;;4.45;1.83;;;20.30;50.60;;;;;;5075451;28;20497;-56
2022/01/04 03:21:32;;;;;;;3.42;1.77;;;20.30;50.60;;;;;;5075515;28;20403;-56
2022/01/04 03:23:58;;;;;;;3.65;2.13;;;20.30;50.60;;;;;;5075083;28;20539;-56
2022/01/04 03:26:24;;;;;;;5.22;2.10;;;20.30;50.60;;;;;;5071582;28;20048;-56
2022/01/04 03:28:50;;;;;;;5.50;2.10;;;20.20;50.50;;;;;;5075712;28;20312;-56
2022/01/04 03:31:15;;;;;;;4.35;2.00;;;20.20;50.50;;;;;;5075183;28;20051;-56
2022/01/04 03:33:41;;;;;;;4.45;1.90;;;20.20;50.50;;;;;;5074387;28;20044;-56
2022/01/04 03:36:06;;;;;;;3.75;1.80;;;20.20;50.50;;;;;;5075154;28;20052;-56
2022/01/04 03:38:32;;;;;;;3.65;1.92;;;20.20;50.50;;;;;;5075191;28;20047;-56
2022/01/04 03:40:58;;;;;;;4.28;1.90;;;20.20;50.40;;;;;;5074707;28;20352;-56
2022/01/04 03:43:24;;;;;;;4.97;2.03;;;20.20;50.40;;;;;;5074908;28;20110;-56
2022/01/04 03:45:50;;;;;;;5.28;1.90;;;20.20;50.40;;;;;;5074969;28;20040;-56
2022/01/04 03:48:15;;;;;;;3.55;2.00;;;20.20;50.40;;;;;;5074896;28;20071;-56
2022/01/04 03:50:41;;;;;;;5.70;2.13;;;20.20;50.40;;;;;;5074770;28;20040;-56
2022/01/04 03:53:07;;;;;;;4.38;2.20;;;20.20;50.40;;;;;;5074480;28;20040;-56
2022/01/04 03:55:33;;;;;;;3.58;2.08;;;20.20;50.40;;;;;;5074669;28;20127;-57
2022/01/04 03:57:59;;;;;;;3.65;2.00;;;20.20;50.30;;;;;;5075155;28;20132;-56
2022/01/04 04:00:24;;;;;;;4.03;2.00;;;20.20;50.40;;;;;;5073444;28;20379;-56
2022/01/04 04:02:50;;;;;;;4.20;2.10;;;20.20;50.30;;;;;;5074527;28;20039;-56
2022/01/04 04:05:16;;;;;;;4.10;2.05;;;20.20;50.40;;;;;;5074493;28;20041;-56
2022/01/04 04:07:42;;;;;;;3.50;1.90;;;20.20;50.40;;;;;;5074437;28;20080;-56
2022/01/04 04:10:08;;;;;;;5.20;2.00;;;20.20;50.30;;;;;;5074471;28;20432;-56
2022/01/04 04:12:34;;;;;;;4.57;2.17;;;20.20;50.30;;;;;;5074908;28;20123;-56
2022/01/04 04:15:04;;;;;;;4.00;2.15;;;20.20;50.30;;;;;;5074276;28;20086;-56
2022/01/04 04:17:33;;;;;;;4.33;2.60;;;20.20;50.30;;;;;;5074785;28;20036;-56
2022/01/04 04:19:59;;;;;;;5.35;2.40;;;20.20;50.30;;;;;;5074419;28;20372;-56
2022/01/04 04:22:24;;;;;;;3.40;1.95;;;20.20;50.30;;;;;;5074641;28;20059;-56
2022/01/04 04:24:50;;;;;;;3.70;2.20;;;20.20;50.30;;;;;;5074091;28;20055;-56
2022/01/04 04:27:15;;;;;;;3.58;2.03;;;20.10;50.20;;;;;;5074565;28;20040;-56
2022/01/04 04:29:41;;;;;;;4.43;2.22;;;20.10;50.20;;;;;;5074062;28;20041;-56
2022/01/04 04:32:07;;;;;;;4.50;2.33;;;20.20;50.30;;;;;;5074049;28;20043;-56
2022/01/04 04:34:33;;;;;;;5.63;2.45;;;20.10;50.20;;;;;;5074505;28;20041;-56
2022/01/04 04:36:59;;;;;;;2.70;1.85;;;20.20;50.20;;;;;;5073863;28;20066;-56
2022/01/04 04:39:25;;;;;;;5.40;2.30;;;20.10;50.20;;;;;;5073831;28;20040;-56
2022/01/04 04:41:52;;;;;;;5.38;2.50;;;20.10;50.20;;;;;;5073135;28;20037;-56
2022/01/04 04:44:18;;;;;;;3.50;2.22;;;20.10;50.10;;;;;;5074136;28;20101;-56
2022/01/04 04:46:44;;;;;;;4.22;2.10;;;20.10;50.10;;;;;;5073703;28;20087;-56
2022/01/04 04:49:10;;;;;;;3.10;2.20;;;20.10;50.20;;;;;;5073622;28;20080;-56
2022/01/04 04:51:36;;;;;;;3.28;1.98;;;20.10;50.20;;;;;;5073700;28;20047;-56
2022/01/04 04:54:01;;;;;;;4.70;2.13;;;20.10;50.10;;;;;;5073687;28;20037;-56
2022/01/04 04:56:27;;;;;;;5.55;2.03;;;20.10;50.10;;;;;;5073819;28;20040;-56
2022/01/04 04:58:52;;;;;;;5.18;2.13;;;20.10;50.20;;;;;;5073491;28;20479;-56
2022/01/04 05:01:18;;;;;;;3.70;2.15;;;20.10;50.20;;;;;;5073757;28;20040;-56
2022/01/04 05:03:43;;;;;;;3.63;1.73;;;20.10;50.20;;;;;;5073456;28;20397;-56
2022/01/04 05:06:09;;;;;;;2.60;2.13;;;20.10;50.20;;;;;;5073672;28;20486;-56
2022/01/04 05:08:35;;;;;;;3.90;2.00;;;20.10;50.20;;;;;;5073446;28;20182;-56
2022/01/04 05:11:02;;;;;;;4.63;2.28;;;20.10;50.20;;;;;;5073572;28;20043;-56
2022/01/04 05:13:28;;;;;;;3.88;2.35;;;20.00;50.10;;;;;;5073300;28;20040;-57
2022/01/04 05:15:54;;;;;;;4.22;2.33;;;20.10;50.20;;;;;;5072964;28;20048;-56
2022/01/04 05:18:19;;;;;;;4.82;2.45;;;20.00;50.10;;;;;;5073325;28;20044;-56
2022/01/04 05:20:45;;;;;;;5.43;2.80;;;20.00;50.10;;;;;;5056647;28;20452;-56
2022/01/04 05:23:10;;;;;;;2.60;2.35;;;20.00;50.10;;;;;;5053170;28;20063;-56
2022/01/04 05:25:37;;;;;;;4.00;2.55;;;20.00;50.10;;;;;;5053405;28;20048;-56
2022/01/04 05:28:03;;;;;;;5.38;2.20;;;20.00;50.10;;;;;;5053604;28;20041;-57
2022/01/04 05:30:29;;;;;;;5.05;2.33;;;20.00;50.10;;;;;;5053597;28;20043;-57
2022/01/04 05:32:54;;;;;;;4.80;2.25;;;20.00;50.30;;;;;;5053093;28;20102;-56
2022/01/04 05:35:20;;;;;;;5.13;2.40;;;20.00;50.50;;;;;;5053172;28;20037;-56
2022/01/04 05:37:45;;;;;;;4.18;2.00;;;20.00;50.60;;;;;;5053156;28;20083;-57
2022/01/04 05:40:11;;;;;;;4.55;2.03;;;20.00;50.70;;;;;;5053379;28;20083;-57
2022/01/04 05:42:37;;;;;;;3.78;2.20;;;20.10;50.80;;;;;;5053010;28;20033;-57
2022/01/04 05:45:03;;;;;;;3.85;1.95;;;20.10;50.80;;;;;;5053043;28;20166;-53
2022/01/04 05:47:29;;;;;;;8.60;2.40;;;20.10;50.90;;;;;;5052892;28;20041;-57
2022/01/04 05:49:54;;;;;;;5.03;2.17;;;20.10;51.00;;;;;;5052949;28;20194;-57
2022/01/04 05:52:20;;;;;;;4.45;2.25;;;20.10;51.10;;;;;;5053038;28;20041;-57
2022/01/04 05:54:48;;;;;;;4.78;2.20;;;20.10;51.20;;;;;;5054629;28;20049;-57
2022/01/04 05:57:15;;;;;;;3.22;2.10;;;20.10;51.20;;;;;;5072768;28;20048;-57
2022/01/04 05:59:40;;;;;;;2.85;1.80;;;20.10;51.20;;;;;;5077018;28;20051;-57
2022/01/04 06:02:06;;;;;;;3.15;2.10;;;20.10;51.20;;;;;;5055833;28;20125;-57
2022/01/04 06:04:31;;;;;;;6.25;2.17;;;20.10;51.20;;;;;;5051740;28;20044;-57
2022/01/04 06:06:57;;;;;;;3.45;2.03;;;20.10;51.20;;;;;;5059595;28;20039;-57
2022/01/04 06:09:27;;;;;;;4.90;2.25;;;20.10;51.20;;;;;;5073510;28;20357;-57
2022/01/04 06:17:05;;;;;;;4.05;1.85;;;20.10;51.20;;;;;;5071130;28;20047;-57
2022/01/04 06:19:31;;;;;;;4.75;1.95;;;20.10;51.10;;;;;;5066108;28;21268;-57
2022/01/04 06:21:56;;;;;;;3.67;1.85;;;20.10;51.20;;;;;;5073837;28;20066;-57
2022/01/04 06:24:22;;;;;;;5.45;2.15;;;20.10;51.10;;;;;;5059727;28;20037;-60
2022/01/04 06:26:48;;;;;;;3.72;1.85;;;20.10;51.10;;;;;;5073551;28;20045;-57
2022/01/04 06:29:14;;;;;;;3.65;1.58;;;20.10;51.10;;;;;;5073082;28;20103;-57
2022/01/04 06:31:41;;;;;;;3.13;1.80;;;20.20;51.20;;;;;;5067781;28;20076;-58
2022/01/04 06:34:06;;;;;;;3.70;1.98;;;20.20;51.30;;;;;;5062151;28;20043;-57
2022/01/04 06:36:32;;;;;;;6.03;1.75;;;20.20;51.10;;;;;;5065906;28;20033;-57
2022/01/04 06:38:58;;;;;;;4.97;1.98;;;20.20;51.10;;;;;;5063726;28;20037;-60
2022/01/04 06:41:23;;;;;;;2.70;1.90;;;20.20;51.10;;;;;;5076758;28;20071;-57
2022/01/04 06:43:49;;;;;;;5.30;2.22;;;20.20;51.10;;;;;;5073137;28;20051;-57
2022/01/04 06:46:15;;;;;;;4.05;2.05;;;20.20;51.00;;;;;;5071499;28;20038;-58
2022/01/04 06:48:41;;;;;;;3.42;2.17;;;20.20;51.00;;;;;;5070279;28;20048;-57
2022/01/04 06:51:08;;;;;;;4.70;2.30;;;20.20;51.00;;;;;;5072788;28;20143;-57
2022/01/04 06:53:34;;;;;;;3.22;1.80;;;20.20;51.00;;;;;;5071579;28;20534;-57
2022/01/04 06:55:59;;;;;;;5.80;2.33;;;20.20;51.10;;;;;;5072300;28;20037;-57
2022/01/04 06:58:25;;;;;;;5.35;2.30;;;20.20;51.10;;;;;;5075861;28;20047;-57
2022/01/04 07:00:50;;;;;;;3.15;1.85;;;20.20;51.10;;;;;;5064895;28;20502;-57
2022/01/04 07:03:16;;;;;;;3.90;2.03;;;20.30;51.30;;;;;;5056208;28;20037;-57
2022/01/04 07:05:42;;;;;;;3.22;1.70;;;20.30;51.30;;;;;;5059314;28;20045;-56
2022/01/04 07:08:08;;;;;;;5.70;2.03;;;20.30;51.30;;;;;;5068143;28;20032;-57
2022/01/04 07:10:33;;;;;;;4.15;2.20;;;20.30;51.40;;;;;;5072379;28;20380;-57
2022/01/04 07:12:59;;;;;;;5.00;1.95;;;20.30;51.50;;;;;;5075569;28;20486;-57
2022/01/04 07:15:25;;;;;;;3.15;1.95;;;20.30;51.40;;;;;;5055221;28;20056;-57
2022/01/04 07:17:50;;;;;;;3.45;2.00;;;20.30;51.50;;;;;;5055942;28;20119;-56
2022/01/04 07:20:16;;;;;;;6.10;2.75;;;20.30;51.40;;;;;;5072668;28;20076;-57
2022/01/04 07:22:42;;;;;;;3.33;2.05;;;20.30;51.60;;;;;;5060952;28;20048;-57
2022/01/04 07:25:08;;;;;;;3.78;2.13;;;20.30;51.60;;;;;;5066690;28;20044;-57
2022/01/04 07:27:33;;;;;;;5.25;2.50;;;20.40;51.60;;;;;;5082481;28;20111;-57
2022/01/04 07:29:59;;;;;;;9.68;2.75;;;20.40;51.50;;;;;;5076025;28;20175;-57
2022/01/04 07:32:25;;;;;;;4.00;2.10;;;20.40;51.60;;;;;;5055187;28;20097;-57
2022/01/04 07:34:51;;;;;;;6.07;2.50;;;20.40;51.70;;;;;;5055247;28;20520;-57
2022/01/04 07:37:16;;;;;;;3.42;2.45;;;20.40;51.60;;;;;;5057122;28;20032;-57
2022/01/04 07:39:42;;;;;;;5.03;2.75;;;20.40;51.60;;;;;;5071803;28;20032;-57
2022/01/04 07:42:08;;;;;;;4.40;1.83;;;20.40;51.60;;;;;;5062737;28;20075;-56
2022/01/04 07:44:33;;;;;;;3.83;2.20;;;20.40;51.70;;;;;;5052302;28;20041;-57
2022/01/04 07:46:59;;;;;;;5.28;2.35;;;20.40;51.70;;;;;;5058059;28;20062;-57
2022/01/04 07:49:25;;;;;;;13.25;2.63;;;20.40;51.70;;;;;;5073643;28;20051;-57
2022/01/04 07:51:52;;;;;;;4.22;2.08;;;20.40;51.70;;;;;;5091272;28;20033;-57
2022/01/04 07:54:18;;;;;;;4.60;2.33;;;20.50;51.70;;;;;;5051992;28;20044;-57
2022/01/04 07:56:43;;;;;;;3.70;2.38;;;20.50;51.70;;;;;;5064275;28;20037;-57
2022/01/04 07:59:09;;;;;;;4.25;2.35;;;20.50;51.60;;;;;;5071917;28;20463;-57
2022/01/04 08:01:35;;;;;;;4.22;2.63;;;20.50;51.60;;;;;;5061292;28;20044;-57
2022/01/04 08:04:03;;;;;;;3.97;2.58;;;20.50;51.50;;;;;;5056595;28;20047;-57
2022/01/04 08:06:29;;;;;;;3.88;2.50;;;20.50;51.50;;;;;;5055103;28;20136;-58
2022/01/04 08:08:55;;;;;;;4.75;2.33;;;20.50;51.50;;;;;;5090792;28;20130;-57
2022/01/04 08:11:21;;;;;;;2.97;2.40;;;20.50;51.40;;;;;;5070157;28;20036;-56
2022/01/04 08:13:46;;;;;;;4.00;2.22;;;20.50;51.40;;;;;;5069590;28;20055;-57
2022/01/04 08:16:15;;;;;;;5.15;2.35;;;20.60;51.40;;;;;;5071274;28;20120;-56
2022/01/04 08:18:41;;;;;;;6.25;2.72;;;20.60;51.40;;;;;;5070940;28;20041;-57
2022/01/04 08:21:07;;;;;;;4.85;2.55;;;20.50;51.30;;;;;;5057672;28;20041;-56
2022/01/04 08:23:32;;;;;;;4.05;2.47;;;20.60;51.30;;;;;;5050725;28;20048;-56
2022/01/04 08:25:58;;;;;;;4.20;2.50;;;20.60;51.30;;;;;;5051663;28;20041;-57
2022/01/04 08:28:24;;;;;;;4.25;2.33;;;20.60;51.20;;;;;;5066273;28;20041;-57
2022/01/04 08:30:49;;;;;;;4.68;2.40;;;20.60;51.10;;;;;;5093973;28;20036;-56
2022/01/04 08:33:15;;;;;;;3.33;2.25;;;20.60;51.10;;;;;;5074048;28;20368;-57
2022/01/04 08:35:41;;;;;;;3.05;2.45;;;20.60;51.00;;;;;;5065223;28;20045;-57
2022/01/04 08:38:07;;;;;;;3.45;2.10;;;20.60;51.00;;;;;;5066133;28;20040;-57
2022/01/04 08:40:34;;;;;;;4.05;2.45;;;20.60;51.00;;;;;;5051407;28;20034;-58
2022/01/04 08:42:59;;;;;;;2.92;2.05;;;20.70;51.00;;;;;;5073767;28;20119;-57
2022/01/04 08:45:26;;;;;;;2.28;2.03;;;20.70;51.00;;;;;;5073693;28;20086;-57
2022/01/04 08:47:52;;;;;;;4.18;2.65;;;20.70;51.10;;;;;;5057908;28;20037;-57
2022/01/04 08:50:18;;;;;;;4.22;2.25;;;20.70;51.10;;;;;;5052022;28;20354;-57
2022/01/04 08:52:44;;;;;;;4.55;2.25;;;20.70;51.20;;;;;;5074338;28;20043;-57
2022/01/04 08:55:11;;;;;;;3.83;2.35;;;20.70;51.20;;;;;;5061427;28;20531;-57
2022/01/04 08:57:38;;;;;;;4.43;2.47;;;20.70;51.20;;;;;;5050665;28;20091;-57
2022/01/04 09:00:06;;;;;;;5.18;2.50;;;20.80;51.20;;;;;;5053611;28;20420;-57
2022/01/04 09:02:33;;;;;;;4.05;2.47;;;20.80;51.20;;;;;;5055190;28;20041;-57
2022/01/04 09:04:59;;;;;;;4.72;2.30;;;20.70;51.20;;;;;;5060135;28;20507;-57
2022/01/04 09:07:26;;;;;;;3.42;2.28;;;20.80;51.30;;;;;;5060731;28;20127;-57
2022/01/04 09:09:51;;;;;;;4.30;2.20;;;20.80;51.30;;;;;;5061252;28;20059;-57
2022/01/04 09:12:19;;;;;;;3.63;2.50;;;20.80;51.20;;;;;;5054107;28;20349;-58
2022/01/04 09:15:05;;;;;;;3.75;2.22;;;20.80;51.20;;;;;;5069867;28;20131;-57
2022/01/04 09:20:16;;;;;;;4.70;2.00;;;20.80;51.10;;;;;;5070167;28;20060;-58
2022/01/04 09:22:41;;;;;;;2.25;1.95;;;20.80;51.00;;;;;;5055841;28;20123;-57
2022/01/04 09:25:09;;;;;;;3.67;2.70;;;20.80;51.00;;;;;;5064708;28;20044;-57
2022/01/04 09:27:35;;;;;;;5.07;2.42;;;20.90;51.00;;;;;;5072945;28;20451;-57
2022/01/04 09:30:04;;;;;;;4.10;2.47;;;20.80;50.90;;;;;;5057360;28;20040;-57
2022/01/04 09:32:32;;;;;;;4.15;2.30;;;20.90;50.90;;;;;;5063957;28;20041;-57
2022/01/04 09:34:58;;;;;;;3.00;2.30;;;20.90;50.90;;;;;;5069013;28;20041;-57
2022/01/04 09:37:24;;;;;;;3.10;2.03;;;20.90;50.90;;;;;;5051670;28;20028;-57
2022/01/04 09:39:50;;;;;;;6.03;2.63;;;20.90;50.80;;;;;;5068462;28;20049;-57
2022/01/04 09:42:18;;;;;;;2.65;2.15;;;20.90;51.50;;;;;;5061106;28;20376;-57
2022/01/04 09:44:43;;;;;;;2.70;1.92;;;20.90;50.70;;;;;;5053570;28;20049;-58
2022/01/04 09:47:09;;;;;;;2.35;1.67;;;20.90;50.60;;;;;;5060295;28;20041;-57
2022/01/04 09:49:34;;;;;;;2.58;1.20;;;20.90;50.50;;;;;;5073055;28;20040;-57
2022/01/04 09:52:02;;;;;;;3.17;1.27;;;20.90;50.40;;;;;;5069505;28;20075;-57
2022/01/04 09:54:28;;;;;;;3.40;1.95;;;20.90;50.30;;;;;;5072659;28;20119;-57
2022/01/04 09:56:54;;;;;;;2.85;1.40;;;20.90;50.40;;;;;;5073369;28;20124;-57
2022/01/04 09:59:21;;;;;;;3.10;1.48;;;21.00;50.30;;;;;;5072862;28;20051;-57
2022/01/04 10:01:53;;;;;;;2.47;1.35;;;21.00;50.60;;;;;;5059554;28;20123;-57
2022/01/04 10:04:24;;;;;;;2.92;1.50;;;21.00;50.60;;;;;;5066684;28;20116;-57
2022/01/04 10:07:02;;;;;;;3.22;1.52;;;21.00;50.60;;;;;;5073430;28;20041;-57
2022/01/04 10:09:45;;;;;;;2.88;1.17;;;21.00;50.70;;;;;;5057233;28;20041;-57
2022/01/04 10:12:16;;;;;;;4.70;1.50;;;21.00;51.00;;;;;;5068012;28;20094;-57
2022/01/04 10:14:47;;;;;;;5.85;1.33;;;21.00;51.00;;;;;;5052856;28;20045;-57
2022/01/04 10:17:16;;;;;;;2.65;1.27;;;21.10;51.20;;;;;;5052846;28;20052;-57
2022/01/04 10:19:44;;;;;;;3.47;1.35;;;21.10;51.30;;;;;;5052435;28;20066;-57
2022/01/04 10:22:28;;;;;;;2.85;1.15;;;21.10;51.20;;;;;;5058646;28;20364;-57
2022/01/04 10:25:02;;;;;;;2.85;1.10;;;21.10;51.30;;;;;;5069940;28;20151;-57
2022/01/04 10:27:37;;;;;;;3.60;1.45;;;21.20;51.30;;;;;;5053789;28;20068;-57
2022/01/04 10:30:20;;;;;;;5.03;1.33;;;21.10;51.30;;;;;;5053432;28;20452;-57
2022/01/04 10:33:07;;;;;;;3.85;1.40;;;21.20;51.40;;;;;;5051883;28;20048;-57
2022/01/04 10:35:47;;;;;;;2.75;1.63;;;21.20;51.40;;;;;;5053104;28;20041;-57
2022/01/04 10:38:18;;;;;;;4.25;1.42;;;21.20;51.50;;;;;;5052620;28;20059;-57
2022/01/04 10:40:49;;;;;;;4.10;1.35;;;21.20;51.40;;;;;;5053267;28;20443;-57
2022/01/04 10:43:16;;;;;;;5.97;1.63;;;21.20;51.50;;;;;;5056141;28;20049;-57
2022/01/04 10:45:43;;;;;;;3.47;1.27;;;21.20;51.50;;;;;;5060569;28;20119;-57
2022/01/04 10:48:19;;;;;;;3.95;1.65;;;21.30;51.60;;;;;;5072989;28;20037;-58
2022/01/04 10:50:53;;;;;;;4.15;1.40;;;21.30;51.60;;;;;;5055553;28;20045;-57
2022/01/04 10:53:31;;;;;;;5.20;1.60;;;21.30;51.60;;;;;;5055996;28;20051;-57
2022/01/04 10:56:03;;;;;;;3.85;1.25;;;21.30;51.60;;;;;;5082507;28;20118;-57
2022/01/04 10:58:35;;;;;;;3.40;1.25;;;21.30;51.60;;;;;;5080950;28;20462;-57
2022/01/04 11:01:10;;;;;;;2.40;1.30;;;21.30;51.70;;;;;;5056550;28;20037;-57
2022/01/04 11:03:38;;;;;;;3.60;1.25;;;21.30;51.60;;;;;;5072282;28;20154;-57
2022/01/04 11:06:11;;;;;;;3.28;1.05;;;21.30;51.60;;;;;;5096491;28;20047;-57
2022/01/04 11:08:38;;;;;;;1.55;0.85;;;21.40;51.60;;;;;;5072958;28;20044;-57
2022/01/04 11:11:04;;;;;;;3.30;1.02;;;21.30;51.60;;;;;;5052460;28;20049;-58
2022/01/04 11:13:30;;;;;;;2.42;1.20;;;21.40;51.50;;;;;;5051987;28;20056;-57
2022/01/04 11:15:56;;;;;;;2.17;1.10;;;21.30;51.40;;;;;;5055495;28;20041;-57
2022/01/04 11:18:22;;;;;;;2.05;1.00;;;21.40;51.40;;;;;;5055563;28;20051;-57
2022/01/04 11:20:49;;;;;;;1.30;0.80;;;21.40;51.30;;;;;;5052448;28;20056;-57
2022/01/04 11:23:15;;;;;;;1.75;1.00;;;21.30;51.20;;;;;;5055117;28;20500;-57
2022/01/04 11:25:44;;;;;;;2.50;0.90;;;21.40;52.00;;;;;;5062626;28;20051;-58
2022/01/04 11:28:13;;;;;;;1.83;0.90;;;21.40;51.20;;;;;;5076098;28;20059;-58
2022/01/04 11:31:05;;;;;;;2.40;1.00;;;21.40;51.20;;;;;;5058810;28;20040;-57
2022/01/04 11:33:44;;;;;;;2.30;1.00;;;21.40;51.00;;;;;;5047703;28;20044;-58
2022/01/04 11:36:13;;;;;;;2.47;0.90;;;21.40;51.10;;;;;;5075769;28;20043;-57
2022/01/04 11:38:39;;;;;;;2.13;1.02;;;21.40;51.10;;;;;;5067651;28;20042;-57
2022/01/04 11:41:05;;;;;;;2.33;1.10;;;21.40;51.00;;;;;;5074988;28;20134;-57
2022/01/04 11:43:38;;;;;;;1.65;1.17;;;21.40;51.10;;;;;;5068371;28;20041;-57
2022/01/04 11:46:05;;;;;;;4.70;1.02;;;21.40;51.20;;;;;;5061969;28;20063;-58
2022/01/04 11:48:32;;;;;;;2.75;1.20;;;21.40;51.30;;;;;;5071517;28;20055;-57
2022/01/04 11:51:29;;;;;;;3.72;1.05;;;21.40;51.30;;;;;;5071914;28;20033;-57
2022/01/04 11:54:13;;;;;;;4.03;0.93;;;21.40;51.20;;;;;;5051434;28;20033;-57
2022/01/04 11:56:49;;;;;;;2.42;0.90;;;21.40;51.20;;;;;;5066556;28;20392;-57
2022/01/04 11:59:23;;;;;;;1.73;1.00;;;21.40;51.10;;;;;;5064955;28;20496;-58
2022/01/04 12:01:50;;;;;;;3.22;1.08;;;21.40;51.10;;;;;;5071378;28;20061;-57
2022/01/04 12:04:47;;;;;;;2.03;0.90;;;21.40;51.10;;;;;;5067982;28;20146;-57
2022/01/04 12:07:52;;;;;;;5.35;0.98;;;21.40;51.00;;;;;;5071630;28;20072;-57
2022/01/04 12:10:18;;;;;;;2.47;1.00;;;21.40;51.00;;;;;;5064381;28;20051;-57
2022/01/04 12:13:06;;;;;;;1.73;0.75;;;21.40;51.10;;;;;;5065433;28;20372;-57
2022/01/04 12:15:35;;;;;;;3.28;0.90;;;21.40;51.10;;;;;;5071113;28;20434;-57
2022/01/04 12:18:01;;;;;;;4.18;1.00;;;21.40;51.10;;;;;;5056987;28;20082;-57
2022/01/04 12:20:42;;;;;;;3.08;1.10;;;21.40;51.00;;;;;;5059886;28;20064;-57
2022/01/04 12:23:26;;;;;;;2.33;0.80;;;21.40;50.80;;;;;;5051886;28;20040;-57
2022/01/04 12:28:42;;;;;;;1.10;0.77;;;21.40;50.60;;;;;;5061206;28;20059;-58
2022/01/04 12:31:13;;;;;;;4.63;1.05;;;21.40;50.60;;;;;;5087814;28;20522;-57
2022/01/04 12:34:11;;;;;;;1.17;0.80;;;21.40;50.50;;;;;;5069773;28;20055;-57
2022/01/04 12:36:41;;;;;;;2.30;1.20;;;21.40;50.50;;;;;;5058382;28;20124;-58
2022/01/04 12:39:12;;;;;;;1.58;0.80;;;21.40;50.40;;;;;;5054968;28;20041;-57
2022/01/04 12:41:40;;;;;;;2.85;0.82;;;21.40;50.30;;;;;;5057323;28;20453;-57
2022/01/04 12:44:07;;;;;;;1.23;0.70;;;21.40;50.20;;;;;;5055919;28;20115;-58
2022/01/04 12:46:38;;;;;;;2.72;0.60;;;21.40;50.10;;;;;;5058769;28;20045;-57
2022/01/04 12:49:05;;;;;;;;;;;21.40;50.00;;;;;;5058703;28;20032;-57
2022/01/04 12:51:52;;;;;;;2.55;0.90;;;21.40;49.80;;;;;;5053292;28;20050;-58
2022/01/04 12:54:19;;;;;;;2.08;0.70;;;21.30;49.90;;;;;;5052858;28;20029;-57
2022/01/04 12:56:56;;;;;;;4.30;0.95;;;21.30;49.90;;;;;;5053736;28;20067;-58
2022/01/04 12:59:43;;;;;;;3.30;1.00;;;21.30;49.90;;;;;;5059094;28;20112;-58
2022/01/04 13:02:20;;;;;;;2.55;0.60;;;21.30;49.80;;;;;;5074238;28;20475;-58
2022/01/04 13:04:53;;;;;;;1.27;0.75;;;21.30;49.80;;;;;;5073222;28;20078;-57
2022/01/04 13:07:31;;;;;;;2.95;0.80;;;21.30;49.70;;;;;;5070710;28;20043;-58